Bear Creek Observed Data For Previous 48 Hours

Caption
Day and Hour Reservoir Elevation (behind dam)* Tailwater Elevation (below dam)* Average Hourly Discharge*
12/16/2018 1 AM CST 565.38 542.28 711
12/16/2018 2 AM CST 565.28 542.26 707
12/16/2018 3 AM CST 565.17 542.26 707
12/16/2018 4 AM CST 565.06 542.25 704
12/16/2018 5 AM CST 564.96 542.22 697
12/16/2018 6 AM CST 564.85 542.19 691
12/16/2018 7 AM CST 564.74 542.18 688
12/16/2018 8 AM CST 564.68 541.82 606
12/16/2018 9 AM CST 564.64 541.38 507
12/16/2018 10 AM CST 564.61 541.26 481
12/16/2018 11 AM CST 564.60 541.09 443
12/16/2018 12 PM CST 564.63 540.49 324
12/16/2018 1 PM CST 564.66 540.39 306
12/16/2018 2 PM CST 564.70 540.38 304
12/16/2018 3 PM CST 564.73 540.37 302
12/16/2018 4 PM CST 564.75 540.37 302
12/16/2018 5 PM CST 564.78 540.37 302
12/16/2018 6 PM CST 564.81 540.37 302
12/16/2018 7 PM CST 564.84 540.37 302
12/16/2018 8 PM CST 564.86 540.37 302
12/16/2018 9 PM CST 564.89 540.37 302
12/16/2018 10 PM CST 564.91 540.37 302
12/16/2018 11 PM CST 564.93 540.38 304
12/17/2018 12 AM CST 564.95 540.38 304
12/17/2018 1 AM CST 564.97 540.38 304
12/17/2018 2 AM CST 564.99 540.38 304
12/17/2018 3 AM CST 565.00 540.38 304
12/17/2018 4 AM CST 565.02 540.39 306
12/17/2018 5 AM CST 565.04 540.38 304
12/17/2018 6 AM CST 565.05 540.38 304
12/17/2018 7 AM CST 565.06 540.39 306
12/17/2018 8 AM CST 565.08 540.38 304
12/17/2018 9 AM CST 565.09 540.39 306
12/17/2018 10 AM CST 565.10 540.39 306
12/17/2018 11 AM CST 565.11 540.39 306
12/17/2018 12 PM CST 565.12 540.39 306
12/17/2018 1 PM CST 565.13 540.39 306
12/17/2018 2 PM CST 565.14 540.39 306
12/17/2018 3 PM CST 565.15 540.38 304
12/17/2018 4 PM CST 565.15 540.39 306
12/17/2018 5 PM CST 565.17 540.38 304
12/17/2018 6 PM CST 565.18 540.39 306
12/17/2018 7 PM CST 565.19 540.39 306
12/17/2018 8 PM CST 565.20 540.40 308
12/17/2018 9 PM CST 565.20 540.40 308
12/17/2018 10 PM CST 565.21 540.40 308
12/17/2018 11 PM CST 565.21 540.39 306
12/18/2018 12 AM CST 565.22 540.39 306
12/18/2018 1 AM CST 565.23 540.39 306
12/18/2018 2 AM CST 565.23 540.40 308
12/18/2018 3 AM CST 565.23 540.39 306
12/18/2018 4 AM CST 565.23 540.41 310
12/18/2018 5 AM CST 565.24 540.39 306

Elevations are in feet above sea level. Discharges are in cubic feet per second and are reported at the end of the hour.